createdAt,value
2023-03-19T00:00:25.292Z,0.00
2023-03-19T00:01:25.250Z,0.00
2023-03-19T00:02:25.267Z,0.00
2023-03-19T00:03:25.286Z,0.00
2023-03-19T00:04:25.301Z,0.00
2023-03-19T00:05:25.201Z,0.00
2023-03-19T00:06:25.191Z,0.00
2023-03-19T00:07:25.180Z,0.00
2023-03-19T00:08:25.174Z,0.00
2023-03-19T00:09:25.204Z,0.00
2023-03-19T00:10:25.179Z,0.00
2023-03-19T00:11:25.134Z,0.00
2023-03-19T00:12:25.131Z,0.00
2023-03-19T00:13:25.124Z,0.00
2023-03-19T00:14:25.101Z,0.00
2023-03-19T00:15:25.093Z,0.00
2023-03-19T00:16:25.135Z,0.00
2023-03-19T00:17:25.070Z,0.00
2023-03-19T00:18:25.070Z,0.00
2023-03-19T00:19:25.044Z,0.00
2023-03-19T00:20:25.034Z,0.00
2023-03-19T00:21:26.085Z,0.00
2023-03-19T00:22:25.031Z,0.00
2023-03-19T00:23:25.002Z,0.00
2023-03-19T00:24:25.304Z,0.00
2023-03-19T00:25:24.974Z,0.00
2023-03-19T00:26:24.979Z,0.00
2023-03-19T00:27:24.957Z,0.00
2023-03-19T00:28:24.962Z,0.00
2023-03-19T00:29:24.936Z,0.00
2023-03-19T00:30:24.968Z,0.00
2023-03-19T00:31:24.910Z,0.00
2023-03-19T00:32:24.906Z,0.00
2023-03-19T00:33:25.050Z,0.00
2023-03-19T00:34:24.902Z,0.00
2023-03-19T00:35:24.868Z,0.00
2023-03-19T00:36:24.855Z,0.00
2023-03-19T00:37:24.846Z,0.00
2023-03-19T00:38:24.833Z,0.00
2023-03-19T00:39:24.824Z,0.00
2023-03-19T00:40:24.843Z,0.00
2023-03-19T00:41:24.804Z,0.00
2023-03-19T00:42:24.782Z,0.00
2023-03-19T00:43:24.801Z,0.00
2023-03-19T00:44:24.773Z,0.00
2023-03-19T00:45:24.755Z,0.00
2023-03-19T00:46:24.848Z,0.00
2023-03-19T00:47:24.978Z,0.00
2023-03-19T00:48:24.863Z,0.00
2023-03-19T00:49:24.702Z,0.00
2023-03-19T00:50:24.693Z,0.00
2023-03-19T00:51:25.093Z,0.00
2023-03-19T00:52:24.695Z,0.00
2023-03-19T00:53:24.663Z,0.00
2023-03-19T00:54:24.702Z,0.00
2023-03-19T00:55:24.635Z,0.00
2023-03-19T00:56:24.634Z,0.00
2023-03-19T00:57:24.637Z,0.00
2023-03-19T00:58:24.648Z,0.00
2023-03-19T00:59:24.592Z,0.00
2023-03-19T01:00:24.583Z,0.00
2023-03-19T01:01:24.600Z,0.00
2023-03-19T01:02:24.553Z,0.00
2023-03-19T01:03:24.552Z,0.00
2023-03-19T01:04:24.591Z,0.00
2023-03-19T01:05:24.530Z,0.00
2023-03-19T01:06:24.510Z,0.00
2023-03-19T01:07:24.489Z,0.00
2023-03-19T01:08:24.478Z,0.00
2023-03-19T01:09:24.477Z,0.00
2023-03-19T01:10:24.507Z,0.00
2023-03-19T01:11:24.449Z,0.00
2023-03-19T01:12:24.437Z,0.00
2023-03-19T01:13:24.431Z,0.00
2023-03-19T01:14:24.411Z,0.00
2023-03-19T01:15:29.652Z,0.00
2023-03-19T01:16:24.392Z,0.00
2023-03-19T01:17:24.388Z,0.00
2023-03-19T01:18:24.368Z,0.00
2023-03-19T01:19:24.364Z,0.00
2023-03-19T01:20:24.352Z,0.00
2023-03-19T01:21:24.371Z,0.00
2023-03-19T01:22:24.319Z,0.00
2023-03-19T01:23:24.315Z,0.00
2023-03-19T01:24:24.311Z,0.00
2023-03-19T01:25:24.297Z,0.00
2023-03-19T01:26:24.282Z,0.00
2023-03-19T01:27:24.293Z,0.00
2023-03-19T01:28:24.252Z,0.00
2023-03-19T01:29:24.249Z,0.00
2023-03-19T01:30:24.228Z,0.00
2023-03-19T01:31:24.283Z,0.00
2023-03-19T01:32:24.208Z,0.00
2023-03-19T01:33:25.620Z,0.00
2023-03-19T01:34:24.188Z,0.00
2023-03-19T01:35:24.180Z,0.00
2023-03-19T01:36:24.159Z,0.00
2023-03-19T01:37:24.149Z,0.00
2023-03-19T01:38:24.140Z,0.00
2023-03-19T01:39:24.155Z,0.00
2023-03-19T01:40:24.118Z,0.00
2023-03-19T01:41:24.097Z,0.00
2023-03-19T01:42:24.099Z,0.00
2023-03-19T01:43:24.087Z,0.00
2023-03-19T01:44:24.067Z,0.00
2023-03-19T01:45:24.079Z,0.00
2023-03-19T01:46:24.156Z,0.00
2023-03-19T01:47:24.044Z,0.00
2023-03-19T01:48:24.032Z,0.00
2023-03-19T01:49:24.091Z,0.00
2023-03-19T01:50:24.008Z,0.00
2023-03-19T01:51:24.026Z,0.00
2023-03-19T01:52:23.987Z,0.00
2023-03-19T01:53:23.969Z,0.00
2023-03-19T01:54:23.964Z,0.00
2023-03-19T01:55:23.937Z,0.00
2023-03-19T01:56:23.954Z,0.00
2023-03-19T01:57:23.952Z,0.00
2023-03-19T01:58:25.847Z,0.00
2023-03-19T01:59:23.927Z,0.00
2023-03-19T02:00:23.887Z,0.00
2023-03-19T02:01:23.874Z,0.00
2023-03-19T02:02:23.866Z,0.00
2023-03-19T02:03:23.867Z,0.00
2023-03-19T02:04:23.922Z,0.00
2023-03-19T02:05:23.834Z,0.00
2023-03-19T02:06:23.824Z,0.00
2023-03-19T02:07:23.817Z,0.00
2023-03-19T02:08:23.794Z,0.00
2023-03-19T02:09:23.806Z,0.00
2023-03-19T02:10:23.770Z,0.00
2023-03-19T02:11:23.757Z,0.00
2023-03-19T02:12:23.758Z,0.00
2023-03-19T02:13:23.783Z,0.00
2023-03-19T02:14:23.716Z,0.00
2023-03-19T02:15:23.750Z,0.00
2023-03-19T02:16:23.746Z,0.00
2023-03-19T02:17:23.688Z,0.00
2023-03-19T02:18:23.677Z,0.00
2023-03-19T02:19:23.666Z,0.00
2023-03-19T02:20:23.653Z,0.00
2023-03-19T02:21:23.661Z,0.00
2023-03-19T02:22:23.633Z,0.00
2023-03-19T02:23:23.616Z,0.00
2023-03-19T02:24:23.625Z,0.00
2023-03-19T02:25:23.597Z,0.00
2023-03-19T02:26:23.647Z,0.00
2023-03-19T02:27:23.586Z,0.00
2023-03-19T02:28:23.589Z,0.00
2023-03-19T02:29:23.545Z,0.00
2023-03-19T02:30:23.544Z,0.00
2023-03-19T02:31:23.568Z,0.00
2023-03-19T02:32:23.515Z,0.00
2023-03-19T02:33:23.532Z,0.00
2023-03-19T02:34:23.499Z,0.00
2023-03-19T02:35:23.476Z,0.00
2023-03-19T02:36:23.477Z,0.00
2023-03-19T02:37:23.469Z,0.00
2023-03-19T02:38:23.443Z,0.00
2023-03-19T02:39:23.452Z,0.00
2023-03-19T02:40:23.424Z,0.00
2023-03-19T02:41:23.415Z,0.00
2023-03-19T02:42:23.397Z,0.00
2023-03-19T02:43:23.385Z,0.00
2023-03-19T02:44:23.443Z,0.00
2023-03-19T02:45:23.394Z,0.00
2023-03-19T02:46:23.369Z,0.00
2023-03-19T02:47:23.345Z,0.00
2023-03-19T02:48:23.338Z,0.00
2023-03-19T02:49:23.313Z,0.00
2023-03-19T02:50:23.306Z,0.00
2023-03-19T02:51:23.326Z,0.00
2023-03-19T02:52:23.287Z,0.00
2023-03-19T02:53:23.273Z,0.00
2023-03-19T02:54:23.268Z,0.00
2023-03-19T02:55:23.244Z,0.00
2023-03-19T02:56:23.233Z,0.00
2023-03-19T02:57:23.252Z,0.00
2023-03-19T02:58:23.231Z,0.00
2023-03-19T02:59:23.204Z,0.00
2023-03-19T03:00:23.195Z,0.00
2023-03-19T03:01:23.266Z,0.00
2023-03-19T03:02:23.239Z,0.00
2023-03-19T03:03:23.158Z,0.00
2023-03-19T03:04:23.151Z,0.00
2023-03-19T03:05:23.143Z,0.00
2023-03-19T03:06:23.133Z,0.00
2023-03-19T03:07:23.110Z,0.00
2023-03-19T03:08:23.142Z,0.00
2023-03-19T03:09:23.101Z,0.00
2023-03-19T03:10:23.082Z,0.00
2023-03-19T03:11:23.071Z,0.00
2023-03-19T03:12:23.061Z,0.00
2023-03-19T03:13:23.052Z,0.00
2023-03-19T03:14:23.055Z,0.00
2023-03-19T03:15:23.022Z,0.00
2023-03-19T03:16:23.077Z,0.00
2023-03-19T03:17:23.002Z,0.00
2023-03-19T03:18:23.002Z,0.00
2023-03-19T03:19:23.042Z,0.00
2023-03-19T03:20:22.976Z,0.00
2023-03-19T03:21:22.956Z,0.00
2023-03-19T03:22:22.971Z,0.00
2023-03-19T03:23:22.948Z,0.00
2023-03-19T03:24:22.928Z,0.00
2023-03-19T03:25:22.935Z,0.00
2023-03-19T03:26:22.904Z,0.00
2023-03-19T03:27:22.887Z,0.00
2023-03-19T03:28:22.888Z,0.00
2023-03-19T03:29:22.863Z,0.00
2023-03-19T03:30:22.856Z,0.00
2023-03-19T03:31:22.875Z,0.00
2023-03-19T03:32:22.868Z,0.00
2023-03-19T03:33:22.830Z,0.00
2023-03-19T03:34:22.814Z,0.00
2023-03-19T03:35:22.857Z,0.00
2023-03-19T03:36:22.784Z,0.00
2023-03-19T03:37:22.784Z,0.00
2023-03-19T03:38:22.766Z,0.00
2023-03-19T03:39:22.776Z,0.00
2023-03-19T03:40:22.746Z,0.00
2023-03-19T03:41:22.730Z,0.00
2023-03-19T03:42:29.798Z,0.00
2023-03-19T03:43:22.718Z,0.00
2023-03-19T03:44:22.698Z,0.00
2023-03-19T03:45:22.688Z,0.00
2023-03-19T03:46:22.681Z,0.00
2023-03-19T03:47:22.669Z,0.00
2023-03-19T03:48:22.671Z,0.00
2023-03-19T03:49:22.638Z,0.00
2023-03-19T03:50:22.644Z,0.00
2023-03-19T03:51:22.610Z,0.00
2023-03-19T03:52:22.615Z,0.00
2023-03-19T03:53:22.618Z,0.00
2023-03-19T03:54:22.589Z,0.00
2023-03-19T03:55:22.571Z,0.00
2023-03-19T03:56:22.556Z,0.00
2023-03-19T03:57:22.549Z,0.00
2023-03-19T03:58:22.539Z,0.00
2023-03-19T03:59:22.539Z,0.00
2023-03-19T04:00:22.511Z,0.00
2023-03-19T04:01:22.502Z,0.00
2023-03-19T04:02:22.544Z,0.00
2023-03-19T04:03:22.613Z,0.00
2023-03-19T04:04:22.509Z,0.00
2023-03-19T04:05:22.452Z,0.00
2023-03-19T04:06:22.460Z,0.00
2023-03-19T04:07:22.430Z,0.00
2023-03-19T04:08:22.420Z,0.00
2023-03-19T04:09:22.405Z,0.00
2023-03-19T04:10:22.427Z,0.00
2023-03-19T04:11:22.387Z,0.00
2023-03-19T04:12:22.370Z,0.00
2023-03-19T04:13:22.373Z,0.00
2023-03-19T04:14:22.359Z,0.00
2023-03-19T04:15:22.338Z,0.00
2023-03-19T04:16:22.393Z,0.00
2023-03-19T04:17:22.330Z,0.00
2023-03-19T04:18:22.322Z,0.00
2023-03-19T04:19:22.289Z,0.00
2023-03-19T04:20:22.279Z,0.00
2023-03-19T04:21:22.278Z,0.00
2023-03-19T04:22:22.282Z,0.00
2023-03-19T04:23:22.252Z,0.00
2023-03-19T04:24:22.242Z,0.00
2023-03-19T04:25:22.228Z,0.00
2023-03-19T04:26:22.222Z,0.00
2023-03-19T04:27:22.240Z,0.00
2023-03-19T04:28:22.188Z,0.00
2023-03-19T04:29:22.201Z,0.00
2023-03-19T04:30:22.168Z,0.00
2023-03-19T04:31:22.192Z,0.00
2023-03-19T04:32:22.159Z,0.00
2023-03-19T04:33:22.148Z,0.00
2023-03-19T04:34:22.131Z,0.00
2023-03-19T04:35:22.110Z,0.00
2023-03-19T04:36:22.106Z,0.00
2023-03-19T04:37:22.100Z,0.00
2023-03-19T04:38:22.109Z,0.00
2023-03-19T04:39:22.061Z,0.00
2023-03-19T04:40:22.059Z,0.00
2023-03-19T04:41:22.041Z,0.00
2023-03-19T04:42:22.038Z,0.00
2023-03-19T04:43:22.150Z,0.00
2023-03-19T04:44:22.036Z,0.00
2023-03-19T04:45:22.001Z,0.00
2023-03-19T04:46:22.030Z,0.00
2023-03-19T04:47:21.978Z,0.00
2023-03-19T04:48:21.969Z,0.00
2023-03-19T04:49:21.947Z,0.00
2023-03-19T04:50:21.962Z,0.00
2023-03-19T04:51:21.934Z,0.00
2023-03-19T04:52:21.920Z,0.00
2023-03-19T04:53:22.028Z,0.00
2023-03-19T04:54:21.897Z,0.00
2023-03-19T04:55:21.907Z,0.00
2023-03-19T04:56:21.878Z,0.00
2023-03-19T04:57:21.856Z,0.00
2023-03-19T04:58:21.851Z,0.00
2023-03-19T04:59:23.027Z,0.00
2023-03-19T05:00:21.829Z,0.00
2023-03-19T05:01:21.859Z,0.00
2023-03-19T05:02:21.797Z,0.00
2023-03-19T05:03:21.791Z,4.00
2023-03-19T05:04:21.786Z,4.00
2023-03-19T05:05:21.767Z,0.00
2023-03-19T05:06:21.756Z,4.00
2023-03-19T05:07:21.887Z,4.00
2023-03-19T05:08:21.736Z,4.00
2023-03-19T05:09:21.718Z,8.00
2023-03-19T05:10:21.716Z,8.00
2023-03-19T05:11:21.697Z,8.00
2023-03-19T05:12:21.706Z,8.00
2023-03-19T05:13:21.841Z,12.00
2023-03-19T05:14:21.668Z,16.00
2023-03-19T05:15:21.662Z,20.00
2023-03-19T05:16:21.710Z,20.00
2023-03-19T05:17:21.629Z,24.00
2023-03-19T05:18:21.638Z,28.00
2023-03-19T05:19:21.762Z,36.00
2023-03-19T05:20:21.605Z,40.00
2023-03-19T05:21:21.577Z,44.00
2023-03-19T05:22:21.582Z,52.00
2023-03-19T05:23:21.606Z,56.00
2023-03-19T05:24:21.570Z,64.00
2023-03-19T05:25:21.538Z,76.00
2023-03-19T05:26:21.528Z,88.00
2023-03-19T05:27:21.520Z,100.00
2023-03-19T05:28:21.507Z,116.00
2023-03-19T05:29:23.239Z,132.00
2023-03-19T05:30:21.479Z,152.00
2023-03-19T05:31:21.536Z,176.00
2023-03-19T05:32:21.470Z,196.00
2023-03-19T05:33:21.450Z,220.00
2023-03-19T05:34:21.440Z,244.00
2023-03-19T05:35:21.473Z,272.00
2023-03-19T05:36:21.418Z,300.00
2023-03-19T05:37:21.398Z,324.00
2023-03-19T05:38:21.392Z,352.00
2023-03-19T05:39:21.387Z,372.00
2023-03-19T05:40:21.397Z,392.00
2023-03-19T05:41:21.348Z,412.00
2023-03-19T05:42:21.345Z,432.00
2023-03-19T05:43:21.331Z,464.00
2023-03-19T05:44:21.336Z,496.00
2023-03-19T05:45:21.308Z,532.00
2023-03-19T05:46:21.329Z,568.00
2023-03-19T05:47:21.289Z,612.00
2023-03-19T05:48:21.278Z,648.00
2023-03-19T05:49:21.266Z,692.00
2023-03-19T05:50:21.246Z,728.00
2023-03-19T05:51:21.257Z,764.00
2023-03-19T05:52:21.226Z,800.00
2023-03-19T05:53:21.221Z,820.00
2023-03-19T05:54:21.210Z,840.00
2023-03-19T05:55:21.195Z,856.00
2023-03-19T05:56:21.175Z,876.00
2023-03-19T05:57:21.200Z,904.00
2023-03-19T05:58:21.163Z,932.00
2023-03-19T05:59:21.148Z,956.00
2023-03-19T06:00:21.137Z,992.00
2023-03-19T06:01:21.216Z,1036.00
2023-03-19T06:02:21.209Z,1092.00
2023-03-19T06:03:21.120Z,1144.00
2023-03-19T06:04:21.157Z,1184.00
2023-03-19T06:05:21.082Z,1216.00
2023-03-19T06:06:21.064Z,1248.00
2023-03-19T06:07:21.055Z,1284.00
2023-03-19T06:08:21.054Z,1320.00
2023-03-19T06:09:21.046Z,1364.00
2023-03-19T06:10:21.024Z,1416.00
2023-03-19T06:11:21.007Z,1480.00
2023-03-19T06:12:20.993Z,1552.00
2023-03-19T06:13:21.074Z,1632.00
2023-03-19T06:14:20.994Z,1708.00
2023-03-19T06:15:20.963Z,1772.00
2023-03-19T06:16:20.957Z,1820.00
2023-03-19T06:17:20.944Z,1852.00
2023-03-19T06:18:20.922Z,1912.00
2023-03-19T06:19:20.943Z,2008.00
2023-03-19T06:20:20.900Z,2120.00
2023-03-19T06:21:20.918Z,2232.00
2023-03-19T06:22:20.881Z,2352.00
2023-03-19T06:23:20.874Z,2472.00
2023-03-19T06:24:20.851Z,2604.00
2023-03-19T06:25:20.861Z,2680.00
2023-03-19T06:26:20.851Z,2692.00
2023-03-19T06:27:20.837Z,2704.00
2023-03-19T06:28:20.825Z,2732.00
2023-03-19T06:29:20.805Z,2808.00
2023-03-19T06:30:20.812Z,2844.00
2023-03-19T06:31:20.797Z,2772.00
2023-03-19T06:32:20.784Z,2652.00
2023-03-19T06:33:20.755Z,2592.00
2023-03-19T06:34:20.746Z,2580.00
2023-03-19T06:35:20.737Z,2576.00
2023-03-19T06:36:20.740Z,2588.00
2023-03-19T06:37:20.716Z,2608.00
2023-03-19T06:38:20.706Z,2664.00
2023-03-19T06:39:20.688Z,2800.00
2023-03-19T06:40:20.685Z,2984.00
2023-03-19T06:41:20.728Z,3212.00
2023-03-19T06:42:20.686Z,3408.00
2023-03-19T06:43:20.647Z,3564.00
2023-03-19T06:44:20.640Z,3684.00
2023-03-19T06:45:20.620Z,3760.00
2023-03-19T06:46:20.723Z,3840.00
2023-03-19T06:47:20.619Z,3968.00
2023-03-19T06:48:20.589Z,4108.00
2023-03-19T06:49:20.577Z,4144.00
2023-03-19T06:50:20.598Z,4168.00
2023-03-19T06:51:20.551Z,4220.00
2023-03-19T06:52:20.541Z,4256.00
2023-03-19T06:53:20.549Z,4288.00
2023-03-19T06:54:20.523Z,4284.00
2023-03-19T06:55:20.516Z,4360.00
2023-03-19T06:56:20.490Z,4468.00
2023-03-19T06:57:20.490Z,4608.00
2023-03-19T06:58:20.472Z,4756.00
2023-03-19T06:59:20.488Z,4940.00
2023-03-19T07:00:20.449Z,5144.00
2023-03-19T07:01:20.486Z,5280.00
2023-03-19T07:02:20.421Z,5260.00
2023-03-19T07:03:20.419Z,5220.00
2023-03-19T07:04:20.482Z,5276.00
2023-03-19T07:05:20.419Z,5364.00
2023-03-19T07:06:20.382Z,5544.00
2023-03-19T07:07:20.370Z,5848.00
2023-03-19T07:08:20.362Z,5928.00
2023-03-19T07:09:20.348Z,5812.00
2023-03-19T07:10:20.362Z,5580.00
2023-03-19T07:11:20.330Z,5360.00
2023-03-19T07:12:20.308Z,5276.00
2023-03-19T07:13:20.299Z,5236.00
2023-03-19T07:14:20.289Z,5196.00
2023-03-19T07:15:20.300Z,5112.00
2023-03-19T07:16:20.322Z,4948.00
2023-03-19T07:17:20.262Z,4800.00
2023-03-19T07:18:20.260Z,4736.00
2023-03-19T07:19:20.597Z,4784.00
2023-03-19T07:20:20.219Z,4928.00
2023-03-19T07:21:20.209Z,5132.00
2023-03-19T07:22:20.228Z,5312.00
2023-03-19T07:23:20.195Z,5496.00
2023-03-19T07:24:20.168Z,5672.00
2023-03-19T07:25:20.172Z,5720.00
2023-03-19T07:26:20.150Z,5796.00
2023-03-19T07:27:20.139Z,5848.00
2023-03-19T07:28:20.168Z,5936.00
2023-03-19T07:29:20.128Z,6132.00
2023-03-19T07:30:20.121Z,6256.00
2023-03-19T07:31:20.141Z,6376.00
2023-03-19T07:32:20.078Z,6448.00
2023-03-19T07:33:20.070Z,6460.00
2023-03-19T07:34:20.078Z,6468.00
2023-03-19T07:35:20.058Z,6504.00
2023-03-19T07:36:20.034Z,6572.00
2023-03-19T07:37:22.380Z,6920.00
2023-03-19T07:38:20.021Z,7340.00
2023-03-19T07:39:19.997Z,7704.00
2023-03-19T07:40:19.997Z,8028.00
2023-03-19T07:41:19.977Z,8708.00
2023-03-19T07:42:19.958Z,8576.00
2023-03-19T07:43:19.957Z,8960.00
2023-03-19T07:44:19.937Z,8792.00
2023-03-19T07:45:19.958Z,8932.00
2023-03-19T07:46:19.954Z,8800.00
2023-03-19T07:47:28.644Z,8740.00
2023-03-19T07:48:20.910Z,9456.00
2023-03-19T07:49:19.897Z,9548.00
2023-03-19T07:50:19.876Z,8840.00
2023-03-19T07:51:20.624Z,9124.00
2023-03-19T07:52:19.850Z,9508.00
2023-03-19T07:53:19.869Z,9792.00
2023-03-19T07:54:19.826Z,10292.00
2023-03-19T07:55:19.817Z,10808.00
2023-03-19T07:56:19.806Z,11244.00
2023-03-19T07:57:19.832Z,11404.00
2023-03-19T07:58:19.799Z,11320.00
2023-03-19T07:59:19.766Z,10980.00
2023-03-19T08:00:19.758Z,10840.00
2023-03-19T08:01:19.748Z,10576.00
2023-03-19T08:02:22.730Z,10320.00
2023-03-19T08:03:19.758Z,10148.00
2023-03-19T08:04:19.730Z,10064.00
2023-03-19T08:05:19.706Z,9864.00
2023-03-19T08:06:19.687Z,9500.00
2023-03-19T08:07:19.677Z,8996.00
2023-03-19T08:08:19.672Z,8680.00
2023-03-19T08:09:19.687Z,8576.00
2023-03-19T08:10:19.636Z,8600.00
2023-03-19T08:11:19.630Z,8560.00
2023-03-19T08:12:19.618Z,8356.00
2023-03-19T08:13:19.606Z,8100.00
2023-03-19T08:14:19.640Z,8072.00
2023-03-19T08:15:19.598Z,8156.00
2023-03-19T08:16:19.587Z,8252.00
2023-03-19T08:17:19.557Z,8360.00
2023-03-19T08:18:19.547Z,8340.00
2023-03-19T08:19:19.570Z,8212.00
2023-03-19T08:20:19.554Z,8460.00
2023-03-19T08:21:19.524Z,8972.00
2023-03-19T08:22:19.507Z,9348.00
2023-03-19T08:23:19.503Z,9636.00
2023-03-19T08:24:19.480Z,9928.00
2023-03-19T08:25:19.505Z,10256.00
2023-03-19T08:26:19.681Z,10640.00
2023-03-19T08:27:19.447Z,11600.00
2023-03-19T08:28:19.439Z,11720.00
2023-03-19T08:29:19.431Z,12232.00
2023-03-19T08:30:19.412Z,12416.00
2023-03-19T08:31:19.524Z,12920.00
2023-03-19T08:32:19.385Z,12376.00
2023-03-19T08:33:19.480Z,11784.00
2023-03-19T08:34:19.357Z,11356.00
2023-03-19T08:35:19.356Z,10980.00
2023-03-19T08:36:19.338Z,10792.00
2023-03-19T08:37:19.348Z,11132.00
2023-03-19T08:38:19.320Z,12464.00
2023-03-19T08:39:19.327Z,12708.00
2023-03-19T08:40:19.298Z,14192.00
2023-03-19T08:41:19.288Z,15868.00
2023-03-19T08:42:19.298Z,16768.00
2023-03-19T08:43:19.408Z,21632.00
2023-03-19T08:44:19.255Z,18528.00
2023-03-19T08:45:19.258Z,19296.00
2023-03-19T08:46:19.274Z,19616.00
2023-03-19T08:47:19.230Z,20352.00
2023-03-19T08:48:19.228Z,21056.00
2023-03-19T08:49:19.198Z,17728.00
2023-03-19T08:50:19.178Z,19168.00
2023-03-19T08:51:19.174Z,22528.00
2023-03-19T08:52:19.168Z,22112.00
2023-03-19T08:53:19.158Z,22112.00
2023-03-19T08:54:22.075Z,25536.00
2023-03-19T08:55:19.141Z,26144.00
2023-03-19T08:56:19.117Z,22912.00
2023-03-19T08:57:19.108Z,34976.00
2023-03-19T08:58:19.088Z,35648.00
2023-03-19T08:59:19.121Z,32928.00
2023-03-19T09:00:19.106Z,33696.00
2023-03-19T09:01:19.114Z,43904.00
2023-03-19T09:02:19.080Z,22944.00
2023-03-19T09:03:19.042Z,19616.00
2023-03-19T09:04:19.097Z,18528.00
2023-03-19T09:05:19.053Z,16864.00
2023-03-19T09:06:19.036Z,16428.00
2023-03-19T09:07:19.026Z,12400.00
2023-03-19T09:08:19.021Z,10372.00
2023-03-19T09:09:18.971Z,9692.00
2023-03-19T09:10:18.980Z,9532.00
2023-03-19T09:11:19.096Z,9660.00
2023-03-19T09:12:18.961Z,10128.00
2023-03-19T09:13:18.930Z,10268.00
2023-03-19T09:14:18.912Z,10216.00
2023-03-19T09:15:18.909Z,10380.00
2023-03-19T09:16:18.947Z,10004.00
2023-03-19T09:17:18.883Z,10116.00
2023-03-19T09:18:18.862Z,10428.00
2023-03-19T09:19:18.858Z,10572.00
2023-03-19T09:20:18.853Z,10484.00
2023-03-19T09:21:18.831Z,10296.00
2023-03-19T09:22:18.863Z,10004.00
2023-03-19T09:23:18.825Z,9992.00
2023-03-19T09:24:18.795Z,10264.00
2023-03-19T09:25:18.785Z,10296.00
2023-03-19T09:26:18.772Z,10472.00
2023-03-19T09:27:18.770Z,11124.00
2023-03-19T09:28:18.781Z,11724.00
2023-03-19T09:29:18.744Z,11672.00
2023-03-19T09:30:18.732Z,11728.00
2023-03-19T09:31:18.763Z,11796.00
2023-03-19T09:32:18.933Z,11400.00
2023-03-19T09:33:18.724Z,10968.00
2023-03-19T09:34:18.728Z,10472.00
2023-03-19T09:35:18.674Z,10504.00
2023-03-19T09:36:18.696Z,11660.00
2023-03-19T09:37:18.656Z,12332.00
2023-03-19T09:38:18.640Z,13604.00
2023-03-19T09:39:18.644Z,14536.00
2023-03-19T09:40:18.610Z,14220.00
2023-03-19T09:41:18.605Z,13608.00
2023-03-19T09:42:18.594Z,13364.00
2023-03-19T09:43:18.586Z,13084.00
2023-03-19T09:44:18.566Z,12900.00
2023-03-19T09:45:18.563Z,12616.00
2023-03-19T09:46:20.623Z,12540.00
2023-03-19T09:47:18.535Z,13248.00
2023-03-19T09:48:18.518Z,13184.00
2023-03-19T09:49:18.530Z,13204.00
2023-03-19T09:50:18.518Z,13472.00
2023-03-19T09:51:18.487Z,14380.00
2023-03-19T09:52:18.490Z,17088.00
2023-03-19T09:53:18.468Z,19904.00
2023-03-19T09:54:18.455Z,20352.00
2023-03-19T09:55:18.449Z,21888.00
2023-03-19T09:56:18.448Z,23232.00
2023-03-19T09:57:18.419Z,23552.00
2023-03-19T09:58:18.411Z,22656.00
2023-03-19T09:59:18.397Z,24544.00
2023-03-19T10:00:18.389Z,25120.00
2023-03-19T10:01:18.452Z,25440.00
2023-03-19T10:02:18.359Z,24864.00
2023-03-19T10:03:18.359Z,24096.00
2023-03-19T10:04:18.396Z,23904.00
2023-03-19T10:05:18.322Z,24896.00
2023-03-19T10:06:18.317Z,24448.00
2023-03-19T10:07:18.341Z,23840.00
2023-03-19T10:08:25.334Z,23200.00
2023-03-19T10:09:18.295Z,23008.00
2023-03-19T10:10:18.265Z,22816.00
2023-03-19T10:11:18.264Z,22112.00
2023-03-19T10:12:18.306Z,20544.00
2023-03-19T10:13:18.253Z,18976.00
2023-03-19T10:14:18.227Z,17856.00
2023-03-19T10:15:18.215Z,17312.00
2023-03-19T10:16:18.281Z,17408.00
2023-03-19T10:17:18.207Z,18240.00
2023-03-19T10:18:18.235Z,18848.00
2023-03-19T10:19:18.186Z,18592.00
2023-03-19T10:20:18.155Z,18176.00
2023-03-19T10:21:18.136Z,17696.00
2023-03-19T10:22:18.250Z,17056.00
2023-03-19T10:23:18.187Z,17092.00
2023-03-19T10:24:18.147Z,16172.00
2023-03-19T10:25:18.102Z,15592.00
2023-03-19T10:26:18.308Z,15552.00
2023-03-19T10:27:18.112Z,14820.00
2023-03-19T10:28:18.147Z,14660.00
2023-03-19T10:29:18.079Z,14152.00
2023-03-19T10:30:18.047Z,13752.00
2023-03-19T10:31:18.057Z,12884.00
2023-03-19T10:32:18.031Z,11876.00
2023-03-19T10:33:18.021Z,11864.00
2023-03-19T10:34:17.990Z,12324.00
2023-03-19T10:35:18.046Z,12048.00
2023-03-19T10:36:18.057Z,11092.00
2023-03-19T10:37:17.979Z,9748.00
2023-03-19T10:38:17.950Z,8668.00
2023-03-19T10:39:17.937Z,7792.00
2023-03-19T10:40:17.934Z,6784.00
2023-03-19T10:41:17.971Z,6164.00
2023-03-19T10:42:17.901Z,5768.00
2023-03-19T10:43:17.892Z,5380.00
2023-03-19T10:44:17.872Z,5644.00
2023-03-19T10:45:17.876Z,5732.00
2023-03-19T10:46:18.028Z,5432.00
2023-03-19T10:47:17.858Z,4680.00
2023-03-19T10:48:18.477Z,4460.00
2023-03-19T10:49:17.830Z,5372.00
2023-03-19T10:50:17.831Z,6708.00
2023-03-19T10:51:17.796Z,7648.00
2023-03-19T10:52:17.816Z,6992.00
2023-03-19T10:53:17.776Z,5700.00
2023-03-19T10:54:17.772Z,5300.00
2023-03-19T10:55:17.768Z,5820.00
2023-03-19T10:56:17.860Z,6780.00
2023-03-19T10:57:17.814Z,7464.00
2023-03-19T10:58:17.742Z,7920.00
2023-03-19T10:59:17.712Z,8592.00
2023-03-19T11:00:17.743Z,9080.00
2023-03-19T11:01:17.754Z,10072.00
2023-03-19T11:02:17.682Z,11264.00
2023-03-19T11:03:17.815Z,11592.00
2023-03-19T11:04:17.704Z,11880.00
2023-03-19T11:05:17.673Z,12580.00
2023-03-19T11:06:17.644Z,12828.00
2023-03-19T11:07:17.617Z,12660.00
2023-03-19T11:08:29.255Z,12764.00
2023-03-19T11:09:18.628Z,12740.00
2023-03-19T11:10:17.726Z,12700.00
2023-03-19T11:11:17.570Z,12500.00
2023-03-19T11:12:17.577Z,12044.00
2023-03-19T11:13:17.559Z,11480.00
2023-03-19T11:14:17.704Z,10288.00
2023-03-19T11:15:17.542Z,9288.00
2023-03-19T11:16:17.619Z,8428.00
2023-03-19T11:17:17.510Z,8280.00
2023-03-19T11:18:17.495Z,7792.00
2023-03-19T11:19:17.471Z,7212.00
2023-03-19T11:20:17.677Z,6704.00
2023-03-19T11:21:17.466Z,6520.00
2023-03-19T11:22:19.638Z,7064.00
2023-03-19T11:23:17.456Z,7116.00
2023-03-19T11:24:17.433Z,7212.00
2023-03-19T11:25:18.172Z,6924.00
2023-03-19T11:26:17.454Z,6456.00
2023-03-19T11:27:17.398Z,6676.00
2023-03-19T11:28:19.802Z,6996.00
2023-03-19T11:29:17.414Z,6668.00
2023-03-19T11:30:17.401Z,6660.00
2023-03-19T11:31:17.342Z,6776.00
2023-03-19T11:32:21.604Z,6748.00
2023-03-19T11:33:17.383Z,6720.00
2023-03-19T11:34:17.315Z,7288.00
2023-03-19T11:35:17.315Z,8324.00
2023-03-19T11:36:17.315Z,8932.00
2023-03-19T11:37:17.314Z,8540.00
2023-03-19T11:38:17.438Z,7536.00
2023-03-19T11:39:17.260Z,6520.00
2023-03-19T11:40:17.449Z,5808.00
2023-03-19T11:41:17.395Z,5276.00
2023-03-19T11:42:17.226Z,5124.00
2023-03-19T11:43:17.238Z,4884.00
2023-03-19T11:44:17.206Z,4488.00
2023-03-19T11:45:17.202Z,4076.00
2023-03-19T11:46:17.217Z,3692.00
2023-03-19T11:47:26.728Z,3436.00
2023-03-19T11:48:18.210Z,3340.00
2023-03-19T11:49:17.160Z,3328.00
2023-03-19T11:50:17.141Z,3580.00
2023-03-19T11:51:17.130Z,3968.00
2023-03-19T11:52:17.107Z,4552.00
2023-03-19T11:53:17.113Z,5220.00
2023-03-19T11:54:17.130Z,5784.00
2023-03-19T11:55:17.079Z,6268.00
2023-03-19T11:56:17.078Z,6604.00
2023-03-19T11:57:17.061Z,6604.00
2023-03-19T11:58:17.056Z,6896.00
2023-03-19T11:59:17.133Z,7064.00
2023-03-19T12:00:17.054Z,7068.00
2023-03-19T12:01:17.032Z,7152.00
2023-03-19T12:02:17.010Z,7088.00
2023-03-19T12:03:17.046Z,6920.00
2023-03-19T12:04:16.972Z,7240.00
2023-03-19T12:05:16.966Z,7136.00
2023-03-19T12:06:17.011Z,6872.00
2023-03-19T12:07:16.945Z,6844.00
2023-03-19T12:08:16.943Z,7132.00
2023-03-19T12:09:17.242Z,7636.00
2023-03-19T12:10:16.917Z,7888.00
2023-03-19T12:11:16.951Z,8032.00
2023-03-19T12:12:17.058Z,7952.00
2023-03-19T12:13:16.885Z,8048.00
2023-03-19T12:14:16.873Z,8268.00
2023-03-19T12:15:16.842Z,8012.00
2023-03-19T12:16:16.997Z,7632.00
2023-03-19T12:17:16.832Z,7504.00
2023-03-19T12:18:16.852Z,7740.00
2023-03-19T12:19:16.814Z,8068.00
2023-03-19T12:20:16.815Z,8688.00
2023-03-19T12:21:16.824Z,9304.00
2023-03-19T12:22:16.778Z,9856.00
2023-03-19T12:23:16.769Z,10240.00
2023-03-19T12:24:18.115Z,10504.00
2023-03-19T12:25:16.733Z,10812.00
2023-03-19T12:26:16.732Z,10968.00
2023-03-19T12:27:16.717Z,11200.00
2023-03-19T12:28:16.705Z,11372.00
2023-03-19T12:29:16.728Z,11148.00
2023-03-19T12:30:16.702Z,10504.00
2023-03-19T12:31:16.716Z,10280.00